Time;durP1;ratioP1;P1;durP2;ratioP2;P2;SDS_P1;SDS_P2;PMS_P1;PMS_P2;Temp;Humidity;BMP_temperature;BMP_pressure;BME280_temperature;BME280_humidity;BME280_pressure;Samples;Min_cycle;Max_cycle;Signal;HPM_P1;HPM_P2
2022/07/15 00:01:01;;;;;;;10.68;2.42;;;15.00;99.90;;;;;;5082991;27;38272;-58
2022/07/15 00:03:28;;;;;;;9.18;1.90;;;15.00;99.90;;;;;;5083691;27;39688;-58
2022/07/15 00:05:57;;;;;;;11.23;2.33;;;15.10;99.90;;;;;;5083517;27;37322;-58
2022/07/15 00:08:24;;;;;;;7.10;1.45;;;15.10;99.90;;;;;;5083399;27;37546;-58
2022/07/15 00:10:52;;;;;;;8.60;2.15;;;15.10;99.90;;;;;;5082464;27;38542;-58
2022/07/15 00:13:19;;;;;;;12.15;1.63;;;15.10;99.90;;;;;;5083629;27;36971;-57
2022/07/15 00:15:46;;;;;;;9.50;2.45;;;15.10;99.90;;;;;;5083704;27;36619;-58
2022/07/15 00:18:14;;;;;;;7.38;1.70;;;15.10;99.90;;;;;;5083849;27;36242;-58
2022/07/15 00:20:42;;;;;;;8.85;1.58;;;15.10;99.90;;;;;;5084671;27;36315;-58
2022/07/15 00:23:11;;;;;;;7.05;1.65;;;15.10;99.90;;;;;;5083222;27;38595;-58
2022/07/15 00:25:38;;;;;;;14.70;1.90;;;15.10;99.90;;;;;;5081490;27;36543;-58
2022/07/15 00:28:07;;;;;;;7.97;1.85;;;15.10;99.90;;;;;;5082061;27;38238;-58
2022/07/15 00:30:36;;;;;;;11.23;1.73;;;15.20;99.90;;;;;;5084462;27;39209;-58
2022/07/15 00:33:03;;;;;;;8.52;1.42;;;15.20;99.90;;;;;;5083313;27;37408;-58
2022/07/15 00:35:32;;;;;;;10.93;1.70;;;15.20;99.90;;;;;;5083114;27;37891;-58
2022/07/15 00:37:59;;;;;;;6.55;1.65;;;15.20;99.90;;;;;;5084207;27;37455;-58
2022/07/15 00:40:28;;;;;;;11.57;2.22;;;15.20;99.90;;;;;;5083000;27;36513;-58
2022/07/15 00:42:56;;;;;;;11.13;1.92;;;15.20;99.90;;;;;;5083083;27;37236;-58
2022/07/15 00:45:25;;;;;;;10.38;2.45;;;15.20;99.90;;;;;;5082760;27;37045;-58
2022/07/15 00:47:55;;;;;;;15.60;3.70;;;15.20;99.90;;;;;;5082599;27;36278;-58
2022/07/15 00:50:24;;;;;;;11.98;4.18;;;15.10;99.90;;;;;;5080007;27;38897;-57
2022/07/15 00:52:56;;;;;;;11.43;4.18;;;15.10;99.90;;;;;;5081775;27;37595;-58
2022/07/15 00:55:25;;;;;;;11.43;4.28;;;15.10;99.90;;;;;;5079877;27;36076;-58
2022/07/15 00:58:00;;;;;;;13.70;3.92;;;15.10;99.90;;;;;;5082724;27;37263;-58
2022/07/15 01:00:27;;;;;;;10.77;2.72;;;15.10;99.90;;;;;;5081221;27;36726;-58
2022/07/15 01:02:55;;;;;;;11.50;2.70;;;15.00;99.90;;;;;;5081970;27;37639;-58
2022/07/15 01:05:24;;;;;;;9.02;2.38;;;15.00;99.90;;;;;;5080681;27;37185;-57
2022/07/15 01:07:52;;;;;;;9.85;2.10;;;15.00;99.90;;;;;;5082521;27;37513;-57
2022/07/15 01:10:20;;;;;;;10.02;1.65;;;15.00;99.90;;;;;;5083440;27;38399;-58
2022/07/15 01:12:49;;;;;;;6.90;1.42;;;15.00;99.90;;;;;;5082873;27;37437;-58
2022/07/15 01:15:19;;;;;;;7.93;1.33;;;15.00;99.90;;;;;;5082416;27;36765;-58
2022/07/15 01:17:47;;;;;;;9.13;1.80;;;15.00;99.90;;;;;;5082589;27;37102;-57
2022/07/15 01:20:16;;;;;;;9.02;1.85;;;15.10;99.90;;;;;;5083459;27;38449;-57
2022/07/15 01:22:44;;;;;;;12.02;2.10;;;15.10;99.90;;;;;;5080624;27;36320;-58
2022/07/15 01:25:12;;;;;;;7.93;1.60;;;15.10;99.90;;;;;;5083034;27;35403;-58
2022/07/15 01:27:41;;;;;;;9.23;1.77;;;15.10;99.90;;;;;;5081917;27;38073;-58
2022/07/15 01:30:09;;;;;;;8.98;2.45;;;15.20;99.90;;;;;;5080934;27;37284;-57
2022/07/15 01:32:37;;;;;;;9.70;1.58;;;15.20;99.90;;;;;;5083576;27;37091;-58
2022/07/15 01:35:05;;;;;;;9.57;1.52;;;15.20;99.90;;;;;;5083451;27;36095;-57
2022/07/15 01:37:32;;;;;;;9.05;1.50;;;15.20;99.90;;;;;;5081769;27;38893;-58
2022/07/15 01:40:01;;;;;;;7.15;1.60;;;15.30;99.90;;;;;;5082173;27;37591;-58
2022/07/15 01:42:28;;;;;;;8.73;1.95;;;15.20;99.90;;;;;;5082272;27;36180;-57
2022/07/15 01:44:56;;;;;;;9.50;1.83;;;15.20;99.90;;;;;;5081183;27;35994;-58
2022/07/15 01:47:23;;;;;;;8.48;1.58;;;15.10;99.90;;;;;;5079934;27;37558;-58
2022/07/15 01:49:50;;;;;;;6.88;1.60;;;15.10;99.90;;;;;;5080991;27;36579;-58
2022/07/15 01:52:18;;;;;;;9.23;1.55;;;15.00;99.90;;;;;;5080644;27;38065;-57
2022/07/15 01:54:48;;;;;;;6.63;1.13;;;15.00;99.90;;;;;;5081470;27;36535;-58
2022/07/15 01:57:17;;;;;;;14.02;2.78;;;15.00;99.90;;;;;;5082489;27;40358;-58
2022/07/15 01:59:44;;;;;;;8.30;1.52;;;14.90;99.90;;;;;;5083062;27;36419;-58
2022/07/15 02:02:11;;;;;;;8.82;1.52;;;14.90;99.90;;;;;;5080553;27;37574;-58
2022/07/15 02:04:39;;;;;;;8.43;1.50;;;14.80;99.90;;;;;;5082816;27;37279;-58
2022/07/15 02:07:06;;;;;;;9.60;1.67;;;14.80;99.90;;;;;;5082542;27;37060;-57
2022/07/15 02:09:34;;;;;;;6.50;1.63;;;14.70;99.90;;;;;;5080918;27;38281;-56
2022/07/15 02:12:01;;;;;;;7.65;1.48;;;14.70;99.90;;;;;;5080951;27;37832;-57
2022/07/15 02:14:30;;;;;;;5.85;1.25;;;14.70;99.90;;;;;;5082561;27;39031;-57
2022/07/15 02:16:58;;;;;;;6.10;1.20;;;14.60;99.90;;;;;;5080264;27;37673;-58
2022/07/15 02:19:25;;;;;;;8.55;1.48;;;14.60;99.90;;;;;;5081937;27;37920;-58
2022/07/15 02:21:55;;;;;;;8.88;1.52;;;14.60;99.90;;;;;;5082508;27;37155;-58
2022/07/15 02:24:22;;;;;;;7.60;1.80;;;14.50;99.90;;;;;;5079506;27;36573;-58
2022/07/15 02:26:49;;;;;;;7.38;1.55;;;14.50;99.90;;;;;;5080486;27;37539;-58
2022/07/15 02:29:18;;;;;;;8.13;1.65;;;14.40;99.90;;;;;;5081706;27;36285;-58
2022/07/15 02:31:47;;;;;;;8.48;1.67;;;14.40;99.90;;;;;;5081666;27;36191;-58
2022/07/15 02:34:15;;;;;;;6.82;1.27;;;14.30;99.90;;;;;;5080656;27;35593;-57
2022/07/15 02:36:42;;;;;;;6.45;1.20;;;14.30;99.90;;;;;;5080425;27;37238;-58
2022/07/15 02:39:09;;;;;;;8.20;1.67;;;14.20;99.90;;;;;;5081704;27;39066;-58
2022/07/15 02:41:36;;;;;;;6.10;1.20;;;14.20;99.90;;;;;;5081762;27;36235;-58
2022/07/15 02:44:05;;;;;;;7.22;1.55;;;14.20;99.90;;;;;;5081396;27;35663;-58
2022/07/15 02:46:33;;;;;;;7.90;1.80;;;14.10;99.90;;;;;;5082619;27;37713;-58
2022/07/15 02:49:02;;;;;;;5.68;1.10;;;14.10;99.90;;;;;;5081803;27;38537;-57
2022/07/15 02:51:29;;;;;;;9.02;1.35;;;14.10;99.90;;;;;;5079135;27;37221;-57
2022/07/15 02:53:57;;;;;;;6.47;1.23;;;14.00;99.90;;;;;;5080327;27;36533;-58
2022/07/15 02:56:24;;;;;;;6.68;1.27;;;14.00;99.90;;;;;;5081834;27;37156;-58
2022/07/15 02:58:51;;;;;;;6.63;1.63;;;13.90;99.90;;;;;;5081114;27;37772;-57
2022/07/15 03:01:19;;;;;;;6.03;1.10;;;13.90;99.90;;;;;;5080286;27;36064;-57
2022/07/15 03:03:46;;;;;;;7.10;1.23;;;13.90;99.90;;;;;;5081445;27;36139;-57
2022/07/15 03:06:15;;;;;;;8.75;1.63;;;13.90;99.90;;;;;;5079749;27;38370;-58
2022/07/15 03:08:42;;;;;;;5.40;0.90;;;13.90;99.90;;;;;;5080523;27;38666;-57
2022/07/15 03:11:10;;;;;;;7.57;1.15;;;13.90;99.90;;;;;;5080605;27;38442;-57
2022/07/15 03:13:38;;;;;;;5.43;1.10;;;13.90;99.90;;;;;;5080733;27;36847;-58
2022/07/15 03:16:05;;;;;;;4.80;1.10;;;13.90;99.90;;;;;;5079720;27;41157;-58
2022/07/15 03:18:33;;;;;;;5.80;1.55;;;13.90;99.90;;;;;;5080055;27;39128;-58
2022/07/15 03:21:00;;;;;;;5.78;1.00;;;13.80;99.90;;;;;;5079542;27;37401;-58
2022/07/15 03:23:28;;;;;;;6.03;1.15;;;13.80;99.90;;;;;;5080181;27;36432;-58
2022/07/15 03:25:56;;;;;;;4.65;0.77;;;13.80;99.90;;;;;;5078239;27;37404;-58
2022/07/15 03:28:23;;;;;;;8.43;1.30;;;13.80;99.90;;;;;;5081163;27;36503;-58
2022/07/15 03:30:51;;;;;;;2.65;0.88;;;13.80;99.90;;;;;;5083684;27;37855;-58
2022/07/15 03:33:18;;;;;;;11.00;2.10;;;13.80;99.90;;;;;;5084075;27;36446;-58
2022/07/15 03:35:46;;;;;;;4.85;1.00;;;13.80;99.90;;;;;;5083023;27;36304;-58
2022/07/15 03:38:13;;;;;;;7.75;1.25;;;13.80;99.90;;;;;;5084521;27;37175;-57
2022/07/15 03:40:41;;;;;;;5.18;1.08;;;13.90;99.90;;;;;;5083944;27;37343;-59
2022/07/15 03:43:09;;;;;;;3.58;0.68;;;13.90;99.90;;;;;;5082091;27;37951;-58
2022/07/15 03:45:36;;;;;;;3.70;0.63;;;13.90;99.90;;;;;;5082682;27;38062;-58
2022/07/15 03:48:05;;;;;;;3.55;1.27;;;13.90;99.90;;;;;;5081829;27;38706;-58
2022/07/15 03:50:32;;;;;;;7.07;0.80;;;13.90;99.90;;;;;;5082032;27;38708;-57
2022/07/15 03:53:00;;;;;;;8.05;1.10;;;13.90;99.90;;;;;;5082220;27;37046;-57
2022/07/15 03:55:27;;;;;;;2.42;0.80;;;13.90;99.90;;;;;;5082782;27;37379;-57
2022/07/15 03:57:56;;;;;;;4.60;1.20;;;13.90;99.90;;;;;;5083660;27;39027;-58
2022/07/15 04:00:23;;;;;;;5.43;1.10;;;14.00;99.90;;;;;;5084857;27;37435;-58
2022/07/15 04:02:51;;;;;;;2.75;0.70;;;14.00;99.90;;;;;;5082046;27;37598;-58
2022/07/15 04:05:18;;;;;;;5.00;0.65;;;14.10;99.90;;;;;;5084299;27;36395;-57
2022/07/15 04:20:39;;;;;;;2.33;0.70;;;14.20;99.90;;;;;;5064327;28;20053;-50
2022/07/15 04:25:35;;;;;;;2.58;0.65;;;14.40;99.90;;;;;;5447254;22;1092391;-57
2022/07/15 04:28:03;;;;;;;6.03;0.80;;;14.50;99.90;;;;;;5036863;28;36393;-58
2022/07/15 04:30:30;;;;;;;6.47;0.93;;;14.60;99.90;;;;;;5036542;28;38687;-58
2022/07/15 04:32:58;;;;;;;2.53;0.75;;;14.80;99.90;;;;;;5036798;28;38209;-58
2022/07/15 04:35:25;;;;;;;6.80;1.13;;;14.90;99.90;;;;;;5040913;28;35096;-58
2022/07/15 04:37:52;;;;;;;5.15;0.80;;;15.00;99.90;;;;;;5039892;28;37983;-57
2022/07/15 04:40:20;;;;;;;5.47;0.57;;;15.10;99.90;;;;;;5038513;28;38673;-57
2022/07/15 04:42:49;;;;;;;5.93;0.85;;;15.20;99.90;;;;;;5039209;28;37228;-58
2022/07/15 04:45:16;;;;;;;7.65;0.88;;;15.30;99.90;;;;;;5038136;28;35361;-58
2022/07/15 04:47:43;;;;;;;5.40;0.80;;;15.30;99.90;;;;;;5040658;28;37749;-58
2022/07/15 04:52:56;;;;;;;5.35;0.90;;;15.20;99.90;;;;;;5041960;28;39183;-57
2022/07/15 04:55:23;;;;;;;5.95;1.02;;;15.20;99.90;;;;;;5039962;28;36699;-57
2022/07/15 04:57:52;;;;;;;2.70;0.65;;;15.20;99.90;;;;;;5041157;28;38046;-58
2022/07/15 05:00:19;;;;;;;3.95;0.82;;;15.20;99.90;;;;;;5040410;28;37109;-58
2022/07/15 05:02:47;;;;;;;3.60;0.85;;;15.10;99.90;;;;;;5041552;28;36719;-57
2022/07/15 05:05:15;;;;;;;3.67;0.75;;;15.10;99.90;;;;;;5038395;28;38264;-58
2022/07/15 05:07:42;;;;;;;7.90;1.13;;;15.10;99.90;;;;;;5041617;28;38410;-58
2022/07/15 05:10:10;;;;;;;10.38;0.93;;;15.00;99.90;;;;;;5040588;28;38752;-58
2022/07/15 05:12:38;;;;;;;3.67;0.63;;;15.10;99.90;;;;;;5042245;28;37647;-58
2022/07/15 05:15:08;;;;;;;4.63;0.55;;;15.10;99.90;;;;;;5041018;28;36424;-58
2022/07/15 05:17:36;;;;;;;2.75;0.57;;;15.00;99.90;;;;;;5040702;28;38092;-58
2022/07/15 05:20:04;;;;;;;4.82;1.00;;;15.10;99.90;;;;;;5040833;28;38123;-58
2022/07/15 05:22:31;;;;;;;4.75;0.70;;;15.10;99.90;;;;;;5042853;28;38690;-58
2022/07/15 05:24:59;;;;;;;7.22;0.82;;;15.10;99.90;;;;;;5042068;28;38365;-58
2022/07/15 05:27:26;;;;;;;5.53;0.70;;;15.20;99.90;;;;;;5059362;28;36157;-58
2022/07/15 05:29:53;;;;;;;3.80;0.73;;;15.40;99.90;;;;;;5063522;28;37884;-58
2022/07/15 05:32:22;;;;;;;3.65;0.80;;;15.60;99.90;;;;;;5061900;28;38790;-58
2022/07/15 05:34:50;;;;;;;3.78;0.63;;;15.70;99.90;;;;;;5063319;28;36853;-58
2022/07/15 05:37:17;;;;;;;2.85;0.80;;;15.60;99.90;;;;;;5060550;28;37238;-58
2022/07/15 05:39:54;;;;;;;6.03;0.60;;;15.70;99.90;;;;;;5062982;28;38625;-58
2022/07/15 05:42:21;;;;;;;3.50;0.63;;;15.70;99.90;;;;;;5062261;28;37478;-58
2022/07/15 05:44:48;;;;;;;4.10;0.85;;;15.70;99.90;;;;;;5062668;28;35174;-59
2022/07/15 05:47:16;;;;;;;5.40;0.95;;;15.60;99.90;;;;;;5061640;28;37480;-58
2022/07/15 05:49:44;;;;;;;5.68;0.80;;;15.70;99.90;;;;;;5061963;28;36797;-58
2022/07/15 05:52:12;;;;;;;3.95;0.50;;;15.70;99.90;;;;;;5060413;28;36196;-59
2022/07/15 05:54:39;;;;;;;7.70;0.80;;;15.60;99.90;;;;;;5063455;28;37753;-57
2022/07/15 05:57:06;;;;;;;6.85;0.90;;;15.70;99.90;;;;;;5062677;28;39446;-58
2022/07/15 05:59:33;;;;;;;3.80;0.63;;;15.70;99.90;;;;;;5062421;28;36408;-58
2022/07/15 06:02:01;;;;;;;4.05;0.70;;;15.60;99.90;;;;;;5063565;28;37519;-58
2022/07/15 06:04:28;;;;;;;3.92;0.47;;;15.60;99.90;;;;;;5061470;28;37747;-58
2022/07/15 06:06:57;;;;;;;3.60;0.60;;;15.70;99.90;;;;;;5062778;28;37260;-58
2022/07/15 06:09:24;;;;;;;4.78;0.70;;;15.70;99.90;;;;;;5061443;28;37895;-58
2022/07/15 06:11:52;;;;;;;4.85;0.75;;;15.70;99.90;;;;;;5061113;28;38560;-58
2022/07/15 06:14:19;;;;;;;5.63;0.70;;;15.70;99.90;;;;;;5061175;28;37979;-59
2022/07/15 06:16:47;;;;;;;4.80;0.60;;;15.70;99.90;;;;;;5063604;28;36276;-58
2022/07/15 06:19:14;;;;;;;6.28;0.70;;;15.70;99.90;;;;;;5063076;28;38909;-59
2022/07/15 06:21:41;;;;;;;10.65;0.77;;;15.70;99.90;;;;;;5063150;28;37030;-58
2022/07/15 06:24:10;;;;;;;6.65;0.90;;;15.70;99.90;;;;;;5062214;28;35886;-58
2022/07/15 06:26:37;;;;;;;3.85;0.80;;;15.70;99.90;;;;;;5063951;28;37238;-58
2022/07/15 06:29:05;;;;;;;11.20;1.20;;;15.80;99.90;;;;;;5064845;28;38841;-59
2022/07/15 06:31:32;;;;;;;5.35;0.77;;;15.90;99.90;;;;;;5064054;28;36955;-59
2022/07/15 06:34:00;;;;;;;2.72;0.60;;;16.00;99.90;;;;;;5062470;28;36701;-58
2022/07/15 06:36:27;;;;;;;5.07;0.73;;;16.00;99.90;;;;;;5064589;28;37489;-58
2022/07/15 06:38:55;;;;;;;6.60;0.70;;;16.00;99.90;;;;;;5062880;28;36504;-59
2022/07/15 06:41:23;;;;;;;3.40;0.70;;;16.00;99.90;;;;;;5064718;28;37420;-59
2022/07/15 06:43:50;;;;;;;3.13;0.70;;;16.00;99.90;;;;;;5064336;28;38447;-59
2022/07/15 06:46:18;;;;;;;3.88;0.70;;;16.10;99.90;;;;;;5062755;28;38756;-52
2022/07/15 06:48:45;;;;;;;4.70;0.60;;;16.30;99.90;;;;;;5062720;28;36790;-53
2022/07/15 06:51:13;;;;;;;5.25;0.90;;;16.50;99.90;;;;;;5060774;28;37652;-52
2022/07/15 06:53:40;;;;;;;5.80;0.90;;;16.70;99.90;;;;;;5053841;28;36623;-51
2022/07/15 06:56:08;;;;;;;8.90;0.75;;;16.80;99.90;;;;;;5062173;28;37983;-53
2022/07/15 06:58:37;;;;;;;2.60;0.60;;;16.80;99.90;;;;;;5061832;28;36839;-52
2022/07/15 07:01:05;;;;;;;5.30;0.95;;;17.00;99.90;;;;;;5060271;28;41041;-52
2022/07/15 07:03:32;;;;;;;3.60;0.57;;;17.10;99.90;;;;;;5058371;28;37323;-53
2022/07/15 07:05:59;;;;;;;3.15;0.70;;;17.30;99.90;;;;;;5061386;28;37287;-51
2022/07/15 07:08:27;;;;;;;9.52;0.93;;;17.40;99.90;;;;;;5061844;28;37963;-52
2022/07/15 07:10:54;;;;;;;4.95;0.70;;;17.50;99.90;;;;;;5062140;28;37258;-53
2022/07/15 07:13:23;;;;;;;5.93;0.98;;;17.70;99.90;;;;;;5063087;28;37289;-53
2022/07/15 07:15:51;;;;;;;8.27;0.80;;;17.90;99.70;;;;;;5064148;28;36349;-53
2022/07/15 07:18:19;;;;;;;5.05;0.98;;;18.00;99.50;;;;;;5062184;28;37742;-51
2022/07/15 07:20:46;;;;;;;5.15;0.88;;;17.90;99.10;;;;;;5063657;28;36799;-52
2022/07/15 07:23:13;;;;;;;8.40;1.00;;;17.80;98.90;;;;;;5062363;28;36935;-52
2022/07/15 07:25:41;;;;;;;4.57;1.33;;;17.70;98.60;;;;;;5062692;28;36295;-52
2022/07/15 07:28:08;;;;;;;5.20;1.52;;;17.50;98.50;;;;;;5062311;28;37827;-52
2022/07/15 07:30:35;;;;;;;5.70;1.20;;;17.40;98.60;;;;;;5062729;28;37219;-54
2022/07/15 07:33:04;;;;;;;4.32;1.10;;;17.30;98.80;;;;;;5063619;28;36042;-51
2022/07/15 07:35:32;;;;;;;8.38;2.13;;;17.30;99.00;;;;;;5063850;28;38224;-53
2022/07/15 07:37:59;;;;;;;4.18;1.30;;;17.20;99.10;;;;;;5063787;28;37418;-53
2022/07/15 07:40:26;;;;;;;5.00;1.60;;;17.10;99.30;;;;;;5063312;28;37798;-52
2022/07/15 07:42:56;;;;;;;7.57;1.58;;;17.10;99.30;;;;;;5061679;28;35440;-52
2022/07/15 07:45:23;;;;;;;5.55;1.50;;;17.10;99.40;;;;;;5062033;28;36641;-53
2022/07/15 07:47:52;;;;;;;4.43;1.40;;;17.10;99.30;;;;;;5063728;28;38140;-52
2022/07/15 07:50:20;;;;;;;4.38;1.25;;;17.10;99.40;;;;;;5063144;28;38330;-52
2022/07/15 07:52:48;;;;;;;13.25;1.58;;;17.00;99.80;;;;;;5063173;28;36352;-52
2022/07/15 07:55:16;;;;;;;4.03;1.30;;;17.00;99.90;;;;;;5062474;28;38051;-52
2022/07/15 07:57:50;;;;;;;11.18;1.60;;;17.00;99.90;;;;;;5062214;28;37843;-53
2022/07/15 08:00:20;;;;;;;3.97;1.50;;;17.00;99.80;;;;;;5062299;28;37396;-53
2022/07/15 08:02:48;;;;;;;9.25;1.63;;;17.00;99.80;;;;;;5063548;28;38231;-52
2022/07/15 08:05:17;;;;;;;5.05;1.48;;;17.00;99.90;;;;;;5063171;28;37086;-54
2022/07/15 08:07:45;;;;;;;5.60;0.80;;;17.10;99.90;;;;;;5062454;28;40179;-53
2022/07/15 08:10:14;;;;;;;4.93;0.57;;;17.20;99.90;;;;;;5063814;28;37319;-53
2022/07/15 08:12:42;;;;;;;4.20;0.63;;;17.10;99.90;;;;;;5062634;28;37999;-52
2022/07/15 08:15:12;;;;;;;1.65;0.50;;;17.10;99.90;;;;;;5063914;28;39511;-50
2022/07/15 08:17:42;;;;;;;3.25;0.40;;;16.90;99.90;;;;;;5064991;28;36434;-51
2022/07/15 08:20:13;;;;;;;2.08;0.40;;;16.90;99.90;;;;;;5064491;28;38642;-50
2022/07/15 08:22:40;;;;;;;3.05;0.52;;;16.90;99.90;;;;;;5064822;28;37184;-53
2022/07/15 08:25:09;;;;;;;3.80;0.70;;;16.80;99.90;;;;;;5062425;28;36254;-53
2022/07/15 08:27:36;;;;;;;2.35;0.55;;;16.80;99.90;;;;;;5063175;28;37991;-51
2022/07/15 08:30:05;;;;;;;5.93;0.55;;;16.90;99.90;;;;;;5065188;28;37958;-52
2022/07/15 08:32:32;;;;;;;4.25;0.40;;;16.90;99.90;;;;;;5065440;28;36737;-51
2022/07/15 08:34:59;;;;;;;3.03;0.50;;;17.00;99.90;;;;;;5064081;28;37633;-51
2022/07/15 08:37:27;;;;;;;6.35;0.75;;;17.10;99.90;;;;;;5062677;28;37335;-51
2022/07/15 08:39:54;;;;;;;4.00;0.43;;;17.30;99.90;;;;;;5064335;28;38884;-50
2022/07/15 08:42:23;;;;;;;2.38;0.55;;;17.40;99.90;;;;;;5062254;28;36913;-49
2022/07/15 08:44:53;;;;;;;3.45;1.13;;;17.60;99.90;;;;;;5065767;28;39170;-52
2022/07/15 08:47:23;;;;;;;4.40;0.73;;;17.60;99.90;;;;;;5065136;28;35553;-53
2022/07/15 08:49:57;;;;;;;3.85;1.17;;;17.60;99.90;;;;;;5065380;28;39115;-53
2022/07/15 08:52:26;;;;;;;8.85;1.10;;;17.60;99.90;;;;;;5065354;28;35391;-52
2022/07/15 08:54:54;;;;;;;9.05;1.17;;;17.50;99.80;;;;;;5065223;28;39000;-53
2022/07/15 08:57:23;;;;;;;4.78;0.80;;;17.50;99.20;;;;;;5064422;28;37802;-53
2022/07/15 08:59:52;;;;;;;3.15;0.90;;;17.60;98.70;;;;;;5066008;28;38287;-53
2022/07/15 09:02:20;;;;;;;4.18;0.70;;;17.70;98.40;;;;;;5065472;28;38338;-52
2022/07/15 09:05:21;;;;;;;10.38;1.15;;;17.70;98.00;;;;;;5065078;28;38863;-53
2022/07/15 09:08:02;;;;;;;13.13;1.02;;;17.60;97.70;;;;;;5059556;28;39075;-53
2022/07/15 09:10:46;;;;;;;5.72;0.80;;;17.60;98.10;;;;;;5062372;28;39402;-60
2022/07/15 09:13:26;;;;;;;5.85;1.20;;;17.60;97.90;;;;;;5064640;28;36548;-60
2022/07/15 09:15:55;;;;;;;8.15;0.98;;;17.50;97.70;;;;;;5065987;28;39022;-60
2022/07/15 09:18:24;;;;;;;4.05;0.68;;;17.50;97.90;;;;;;5065633;28;37883;-59
2022/07/15 09:20:52;;;;;;;3.58;0.52;;;17.60;98.10;;;;;;5066659;28;37272;-59
2022/07/15 09:23:29;;;;;;;3.35;0.32;;;17.70;98.30;;;;;;5064795;28;36949;-59
2022/07/15 09:25:59;;;;;;;4.18;0.50;;;17.80;98.20;;;;;;5064908;28;36431;-59
2022/07/15 09:28:44;;;;;;;11.40;0.88;;;17.90;98.00;;;;;;5049526;28;37815;-59
2022/07/15 09:34:01;;;;;;;4.65;0.70;;;18.00;97.70;;;;;;5065083;28;37468;-59
2022/07/15 09:36:30;;;;;;;4.40;0.43;;;18.00;97.50;;;;;;5064609;28;38241;-59
2022/07/15 09:38:59;;;;;;;6.15;0.80;;;18.20;97.60;;;;;;5064886;28;37856;-59
2022/07/15 09:41:30;;;;;;;14.38;1.10;;;18.30;97.80;;;;;;5065498;28;36270;-60
2022/07/15 09:44:02;;;;;;;64.25;4.57;;;18.40;97.50;;;;;;5064999;28;36265;-59
2022/07/15 09:46:41;;;;;;;8.07;0.90;;;18.50;97.60;;;;;;5065874;28;37992;-59
2022/07/15 09:49:08;;;;;;;13.02;1.73;;;18.70;97.30;;;;;;5065241;28;37533;-59
2022/07/15 09:51:44;;;;;;;2.40;0.43;;;18.80;97.00;;;;;;5066323;28;36511;-59
2022/07/15 09:54:13;;;;;;;5.15;0.57;;;18.90;96.70;;;;;;5065835;28;38054;-60
2022/07/15 09:56:40;;;;;;;182.00;11.80;;;19.10;96.60;;;;;;5064976;28;38048;-59
2022/07/15 09:59:09;;;;;;;13.10;1.35;;;19.20;96.40;;;;;;5065229;28;38273;-61
2022/07/15 10:01:37;;;;;;;11.93;1.10;;;19.20;95.90;;;;;;5064926;28;38307;-61
2022/07/15 10:04:05;;;;;;;3.67;0.60;;;19.30;95.80;;;;;;5064407;28;37111;-59
2022/07/15 10:06:35;;;;;;;10.45;1.48;;;19.20;96.00;;;;;;5064797;28;36955;-60
2022/07/15 10:09:05;;;;;;;6.65;0.82;;;19.30;95.70;;;;;;5065341;28;38336;-60
2022/07/15 10:11:36;;;;;;;5.30;0.70;;;19.30;95.50;;;;;;5065625;28;38466;-61
2022/07/15 10:14:31;;;;;;;5.90;0.98;;;19.20;95.10;;;;;;5065239;28;36810;-61
2022/07/15 10:17:39;;;;;;;27.48;1.77;;;19.20;94.80;;;;;;5064899;28;37600;-60
2022/07/15 10:20:28;;;;;;;3.65;0.43;;;19.20;94.40;;;;;;5061514;28;36984;-60
2022/07/15 10:23:03;;;;;;;8.85;1.23;;;19.20;94.60;;;;;;5061491;28;36072;-59
2022/07/15 10:26:02;;;;;;;4.38;0.60;;;19.10;95.10;;;;;;5060121;28;36494;-60
2022/07/15 10:28:50;;;;;;;6.28;0.82;;;19.20;94.90;;;;;;5062031;28;37679;-60
2022/07/15 10:31:23;;;;;;;4.55;0.40;;;19.20;94.90;;;;;;5063820;28;37796;-60
2022/07/15 10:34:19;;;;;;;2.72;0.50;;;19.20;94.40;;;;;;5063360;28;37222;-60
2022/07/15 10:36:58;;;;;;;2.67;0.75;;;19.20;93.90;;;;;;5062664;28;37199;-60
2022/07/15 10:39:27;;;;;;;2.03;0.50;;;19.30;94.20;;;;;;5061430;28;37703;-60
2022/07/15 10:41:56;;;;;;;4.40;1.00;;;19.40;94.40;;;;;;5061382;28;37522;-60
2022/07/15 10:44:25;;;;;;;2.65;0.65;;;19.40;94.20;;;;;;5063010;28;37368;-60
2022/07/15 10:47:19;;;;;;;5.43;0.60;;;19.50;93.90;;;;;;5062881;28;37056;-60
2022/07/15 10:49:50;;;;;;;1.13;0.30;;;19.40;92.90;;;;;;5062759;28;37069;-60
2022/07/15 10:52:19;;;;;;;3.47;0.70;;;19.30;93.40;;;;;;5063048;28;38117;-59
2022/07/15 10:54:49;;;;;;;1.05;0.50;;;19.30;93.30;;;;;;5062314;28;37504;-59
2022/07/15 10:57:19;;;;;;;1.67;0.43;;;19.30;93.20;;;;;;5062704;28;36485;-59
2022/07/15 10:59:51;;;;;;;6.13;0.52;;;19.30;93.40;;;;;;5062768;28;40914;-60
2022/07/15 11:02:30;;;;;;;13.65;1.02;;;19.30;93.30;;;;;;5063851;28;35828;-61
2022/07/15 11:05:20;;;;;;;14.90;1.00;;;19.20;92.90;;;;;;5063600;28;37889;-62
2022/07/15 11:07:48;;;;;;;1.33;0.32;;;19.20;92.70;;;;;;5061213;28;37313;-59
2022/07/15 11:10:23;;;;;;;6.30;0.57;;;19.10;93.10;;;;;;5066934;28;37322;-59
2022/07/15 11:12:59;;;;;;;6.57;0.43;;;19.10;93.30;;;;;;5069453;28;38156;-59
2022/07/15 11:15:27;;;;;;;3.63;0.75;;;19.10;93.10;;;;;;5067772;28;38046;-60
2022/07/15 11:17:57;;;;;;;2.75;0.77;;;19.10;93.30;;;;;;5068165;28;37439;-60
2022/07/15 11:20:30;;;;;;;4.20;0.63;;;19.00;93.70;;;;;;5067503;28;37667;-60
2022/07/15 11:22:59;;;;;;;3.65;0.75;;;18.90;93.80;;;;;;5066815;28;37216;-61
2022/07/15 11:25:28;;;;;;;3.10;0.70;;;18.80;93.50;;;;;;5067532;28;36112;-59
2022/07/15 11:28:05;;;;;;;0.60;0.28;;;18.80;93.30;;;;;;5068739;28;36610;-60
2022/07/15 11:30:36;;;;;;;4.50;0.38;;;18.70;93.20;;;;;;5067535;28;38032;-60
2022/07/15 11:33:08;;;;;;;5.32;0.70;;;18.70;93.40;;;;;;5067600;28;37166;-60
2022/07/15 11:35:46;;;;;;;5.65;0.98;;;18.70;93.50;;;;;;5068381;28;38111;-60
2022/07/15 11:38:14;;;;;;;5.40;0.70;;;18.70;93.60;;;;;;5067969;28;37152;-60
2022/07/15 11:46:24;;;;;;;3.45;0.52;;;18.80;94.40;;;;;;5068390;28;38202;-60
2022/07/15 11:48:53;;;;;;;9.75;1.00;;;19.00;94.80;;;;;;5068001;28;36973;-59
2022/07/15 11:51:26;;;;;;;33.50;1.60;;;19.20;94.70;;;;;;5071811;28;38035;-60
2022/07/15 11:53:54;;;;;;;;;;;19.40;94.40;;;;;;5071923;28;38216;-60
2022/07/15 11:56:21;;;;;;;3.60;0.60;;;19.60;93.40;;;;;;5070814;28;36932;-59
2022/07/15 11:58:52;;;;;;;4.88;0.98;;;19.50;93.50;;;;;;5072217;28;36591;-60
2022/07/15 12:01:22;;;;;;;4.45;0.70;;;19.50;93.00;;;;;;5071082;28;38290;-60
2022/07/15 12:03:51;;;;;;;4.35;0.90;;;19.40;93.10;;;;;;5071646;28;38140;-59
2022/07/15 12:06:22;;;;;;;5.50;1.17;;;19.30;93.20;;;;;;5071468;28;37149;-60
2022/07/15 12:08:52;;;;;;;9.65;1.50;;;19.20;93.50;;;;;;5071704;28;36036;-60
2022/07/15 12:11:22;;;;;;;4.95;0.80;;;19.10;93.90;;;;;;5070592;28;37623;-60
2022/07/15 12:14:00;;;;;;;9.68;1.20;;;19.00;94.20;;;;;;5071358;28;38820;-61
2022/07/15 12:16:30;;;;;;;3.20;0.80;;;18.90;94.30;;;;;;5070508;28;37184;-60
2022/07/15 12:18:59;;;;;;;2.97;0.73;;;18.90;94.60;;;;;;5070661;28;38062;-61
2022/07/15 12:21:29;;;;;;;3.50;0.88;;;18.80;95.00;;;;;;5070851;28;39214;-60
2022/07/15 12:24:01;;;;;;;6.93;0.70;;;18.70;95.20;;;;;;5070262;28;36696;-61
2022/07/15 12:26:29;;;;;;;1.55;0.57;;;18.70;95.60;;;;;;5070085;28;38115;-60
2022/07/15 12:28:58;;;;;;;4.50;0.90;;;18.60;95.80;;;;;;5071117;28;36337;-61
2022/07/15 12:31:26;;;;;;;3.58;1.05;;;18.60;96.00;;;;;;5071215;28;37563;-62
2022/07/15 12:33:54;;;;;;;4.28;0.90;;;18.60;96.20;;;;;;5071041;28;38427;-60
2022/07/15 12:36:23;;;;;;;5.28;0.93;;;18.60;96.20;;;;;;5070215;28;36246;-59
2022/07/15 12:39:19;;;;;;;7.03;0.98;;;18.60;96.10;;;;;;5070494;28;37415;-61
2022/07/15 12:42:00;;;;;;;4.55;0.77;;;18.50;96.10;;;;;;5022661;28;38834;-54
2022/07/15 12:44:28;;;;;;;5.55;0.80;;;18.50;96.20;;;;;;5069993;28;38179;-51
2022/07/15 12:46:57;;;;;;;2.13;0.70;;;18.60;96.20;;;;;;5070597;28;37335;-49
2022/07/15 12:49:41;;;;;;;4.60;1.00;;;18.60;96.60;;;;;;5069894;28;37337;-49
2022/07/15 12:52:18;;;;;;;5.93;0.93;;;18.60;96.80;;;;;;5068753;28;38217;-53
2022/07/15 12:54:47;;;;;;;4.65;0.90;;;18.70;96.40;;;;;;5068940;28;39040;-54
2022/07/15 12:57:29;;;;;;;7.10;1.23;;;18.70;96.60;;;;;;5070608;28;38433;-54
2022/07/15 12:59:58;;;;;;;5.70;1.10;;;18.70;96.70;;;;;;5069943;28;36322;-54
2022/07/15 13:02:27;;;;;;;2.45;0.80;;;18.70;96.50;;;;;;5070801;28;38135;-54
2022/07/15 13:04:56;;;;;;;4.03;1.17;;;18.70;96.70;;;;;;5069575;28;37851;-53
2022/07/15 13:07:23;;;;;;;4.65;1.23;;;18.70;96.80;;;;;;5069389;28;37444;-54
2022/07/15 13:09:52;;;;;;;5.53;1.00;;;18.70;96.80;;;;;;5065010;28;36568;-54
2022/07/15 13:12:19;;;;;;;7.47;1.10;;;18.70;96.90;;;;;;5069368;28;38528;-53
2022/07/15 13:14:47;;;;;;;24.20;2.05;;;18.70;97.10;;;;;;5071596;28;37209;-54
2022/07/15 13:17:14;;;;;;;12.98;1.50;;;18.70;97.20;;;;;;5068407;28;38588;-54
2022/07/15 13:19:41;;;;;;;10.95;1.20;;;18.60;97.30;;;;;;5069637;28;36400;-54
2022/07/15 13:22:09;;;;;;;168.60;14.50;;;18.70;97.70;;;;;;5069107;28;38354;-52
2022/07/15 13:24:36;;;;;;;8.90;1.73;;;18.70;97.30;;;;;;5069836;28;37790;-47